الصفحة الرئيسية
METAR-TAF:

METAR-TAF

مطار :

مطار نواكشوط الدولي

نواكشوط, موريتانيا

دائرة عرض: 18-18-36N, خط طول: 015-58-11W, ارتفاع: 3 متر

مراقبة الطقس الحالي

تاريخ ووقت الإصدار 31 دقيقة قبل الساعة 10:00UTC
ريح 13 عقدة من الشرق/الشمال الشرقي
درجة الحرارة 21°درجة مئوية
الرطوبة 18%
ضغط 1019 hPa
الرؤية: 8000 متر

METAR: GQNO 141000Z 07013KT 8000 NSC 21/M04 Q1019 NOSIG

زمن: 10:31 (10:31 UTC)

توقعات

تاريخ ووقت الإصدار 5ساعات و 31 دقيقة قبل الساعة 05:00UTC
التوقعات صالحة من14 الساعة 06 UTC إلى 15 الساعة 12 UTC
ريح 8 عقدة من الشمال الشرقي
الرؤية: 8000 متر
أصبح
من 14 الساعة 08 UTC إلى 18 الساعة 11 UTC
ريح 16 عقدة من الشرق
الرؤية: 4000 متر
هبوب الغبار
أصبح
من 14 الساعة 18 UTC إلى 14 الساعة 20 UTC
ريح 10 عقدة من الشمال/الشمال الشرقي
الرؤية: 7000 متر

TAF: GQNO 140500Z 1406/1512 05008KT 8000 NSC BECMG 1408/1811 09016KT 4000 BLDU BECMG 1418/1420 03010KT 7000 NSW

أرصاد الطقس والتوقعات من أكثر من 4000 مطار (تقارير الطقس للمطار METAR والتنبؤ بالطقس بالمطارTAF).

المحطات المتاحة هي النقط الصفراء والحمراء على الخريطة.

حرك المؤشر فوق النقطة لمعرفة اسم المحطة.

ثم انقر لمعرفة أرصاد وتوقعات الطقس.

لتغيير الخارطة: اضغط على الأزرار الخضراء مع رمز الصليب الأسود للتكبير. على الزر الأخضر مع شرطة للتصغير، أو على الأسهم الخضراء للخرائط المجاورة.


METAR-TAF: